Time;durP1;ratioP1;P1;durP2;ratioP2;P2;SDS_P1;SDS_P2;PMS_P1;PMS_P2;Temp;Humidity;BMP_temperature;BMP_pressure;BME280_temperature;BME280_humidity;BME280_pressure;Samples;Min_cycle;Max_cycle;Signal;HPM_P1;HPM_P2
2023/04/17 00:00:42;;;;;;;41.58;23.20;;;;;;;8.15;100.00;102551.03;4989683;28;20446;-74
2023/04/17 00:03:10;;;;;;;39.97;23.63;;;;;;;8.10;100.00;102547.50;4991572;28;20030;-74
2023/04/17 00:05:36;;;;;;;39.42;23.42;;;;;;;8.12;100.00;102542.34;4991588;28;20023;-74
2023/04/17 00:08:01;;;;;;;39.50;24.05;;;;;;;8.13;100.00;102542.34;4990560;28;20052;-74
2023/04/17 00:10:27;;;;;;;41.95;24.35;;;;;;;8.14;100.00;102545.81;5004777;28;20026;-74
2023/04/17 00:12:52;;;;;;;36.85;23.23;;;;;;;8.09;100.00;102544.88;4991420;28;20127;-74
2023/04/17 00:15:17;;;;;;;42.17;24.63;;;;;;;8.09;100.00;102540.56;4990781;28;20032;-74
2023/04/17 00:17:42;;;;;;;40.20;23.83;;;;;;;8.09;100.00;102543.16;4991160;28;20041;-74
2023/04/17 00:20:09;;;;;;;39.22;23.60;;;;;;;8.06;100.00;102534.44;4991060;28;20022;-74
2023/04/17 00:22:35;;;;;;;38.67;22.45;;;;;;;8.09;100.00;102545.75;4990746;28;20102;-74
2023/04/17 00:25:00;;;;;;;38.35;23.67;;;;;;;8.11;100.00;102540.56;4991081;28;20148;-74
2023/04/17 00:27:25;;;;;;;34.28;22.73;;;;;;;8.05;100.00;102533.56;4991226;28;20102;-74
2023/04/17 00:29:50;;;;;;;39.78;24.67;;;;;;;8.11;100.00;102532.78;4997787;28;20022;-74
2023/04/17 00:32:16;;;;;;;37.08;23.52;;;;;;;8.10;100.00;102526.72;4991112;28;20431;-74
2023/04/17 00:34:41;;;;;;;39.10;23.77;;;;;;;8.11;100.00;102538.88;4990818;28;20034;-74
2023/04/17 00:37:06;;;;;;;36.60;23.92;;;;;;;8.08;100.00;102525.84;4990452;28;20475;-74
2023/04/17 00:39:31;;;;;;;40.35;24.42;;;;;;;8.01;100.00;102516.22;4991242;28;20580;-74
2023/04/17 00:41:57;;;;;;;41.53;25.05;;;;;;;8.03;100.00;102527.47;4990947;28;20030;-74
2023/04/17 00:44:22;;;;;;;35.80;23.70;;;;;;;7.90;100.00;102507.38;4990127;28;20482;-74
2023/04/17 00:46:48;;;;;;;41.63;24.52;;;;;;;7.93;100.00;102510.03;4991233;28;20069;-74
2023/04/17 00:49:13;;;;;;;39.55;24.02;;;;;;;7.92;100.00;102511.75;4990734;28;20034;-74
2023/04/17 00:51:38;;;;;;;39.30;22.13;;;;;;;7.86;100.00;102501.28;4990059;28;20076;-74
2023/04/17 00:54:04;;;;;;;38.20;23.35;;;;;;;7.89;100.00;102509.13;4990553;28;20049;-74
2023/04/17 00:56:30;;;;;;;33.35;22.05;;;;;;;7.94;100.00;102510.03;4989772;28;20108;-74
2023/04/17 00:58:57;;;;;;;37.90;23.58;;;;;;;7.92;100.00;102503.09;4989819;28;20022;-74
2023/04/17 01:01:23;;;;;;;37.13;22.60;;;;;;;7.98;100.00;102513.56;4990913;28;20064;-74
2023/04/17 01:03:49;;;;;;;37.35;23.83;;;;;;;8.00;100.00;102511.84;4990627;28;20054;-74
2023/04/17 01:06:15;;;;;;;35.70;22.35;;;;;;;8.01;100.00;102517.91;4990503;28;20035;-74
2023/04/17 01:08:42;;;;;;;37.10;22.83;;;;;;;8.02;100.00;102517.09;4990019;28;20089;-74
2023/04/17 01:11:09;;;;;;;39.05;24.17;;;;;;;8.02;100.00;102517.94;4990034;28;20053;-74
2023/04/17 01:13:51;;;;;;;40.55;23.65;;;;;;;7.95;100.00;102506.59;4990357;28;20461;-74
2023/04/17 01:16:18;;;;;;;36.97;23.90;;;;;;;8.00;100.00;102518.78;4990568;28;20109;-74
2023/04/17 01:18:43;;;;;;;36.67;21.98;;;;;;;7.98;100.00;102527.44;4989860;28;20030;-74
2023/04/17 01:21:09;;;;;;;38.78;23.40;;;;;;;7.93;100.00;102510.03;4990654;28;20030;-74
2023/04/17 01:23:45;;;;;;;34.65;23.67;;;;;;;8.00;100.00;102523.97;4990635;28;20053;-74
2023/04/17 01:26:31;;;;;;;38.63;23.90;;;;;;;7.96;100.00;102517.84;4989826;28;20057;-74
2023/04/17 01:28:58;;;;;;;38.55;23.00;;;;;;;7.94;100.00;102520.41;4989615;28;20061;-74
2023/04/17 01:31:25;;;;;;;37.38;22.75;;;;;;;7.89;100.00;102510.84;4990547;28;20355;-74
2023/04/17 01:33:53;;;;;;;42.70;24.60;;;;;;;7.93;100.00;102515.22;4989444;28;20373;-74
2023/04/17 01:36:19;;;;;;;38.03;21.88;;;;;;;7.94;100.00;102527.34;4990906;28;20045;-74
2023/04/17 01:38:44;;;;;;;41.90;22.20;;;;;;;7.94;100.00;102527.34;4990241;28;20030;-75
2023/04/17 01:41:10;;;;;;;36.65;22.30;;;;;;;7.88;100.00;102524.66;4989528;28;20035;-74
2023/04/17 01:43:40;;;;;;;35.55;21.83;;;;;;;7.86;100.00;102516.00;4989156;28;20034;-74
2023/04/17 01:46:05;;;;;;;37.47;22.85;;;;;;;7.84;100.00;102528.94;4989225;28;20034;-74
2023/04/17 01:48:31;;;;;;;34.20;21.55;;;;;;;7.81;100.00;102522.81;4989320;28;20038;-74
2023/04/17 01:50:57;;;;;;;35.20;21.17;;;;;;;7.82;100.00;102528.06;4989186;28;20468;-74
2023/04/17 01:53:22;;;;;;;31.98;21.00;;;;;;;7.83;100.00;102521.13;4987318;28;20043;-74
2023/04/17 01:55:47;;;;;;;34.10;21.67;;;;;;;7.81;100.00;102518.50;4987003;28;20091;-74
2023/04/17 01:58:15;;;;;;;32.47;20.83;;;;;;;7.77;100.00;102519.31;4989287;28;20571;-74
2023/04/17 02:00:41;;;;;;;31.27;20.65;;;;;;;7.79;100.00;102522.81;4988221;28;20058;-74
2023/04/17 02:03:08;;;;;;;33.78;22.02;;;;;;;7.80;100.00;102529.75;4988870;28;20062;-74
2023/04/17 02:05:34;;;;;;;36.60;21.80;;;;;;;7.77;100.00;102518.44;4989289;28;20038;-74
2023/04/17 02:08:02;;;;;;;35.67;22.23;;;;;;;7.84;100.00;102534.13;4987152;28;20039;-74
2023/04/17 02:10:27;;;;;;;35.40;21.25;;;;;;;7.83;100.00;102526.31;4988270;28;20041;-74
2023/04/17 02:12:52;;;;;;;36.72;22.70;;;;;;;7.85;100.00;102533.28;4987051;28;20030;-74
2023/04/17 02:15:18;;;;;;;40.28;22.42;;;;;;;7.76;100.00;102519.31;4987747;28;20027;-74
2023/04/17 02:17:43;;;;;;;36.03;22.95;;;;;;;7.69;100.00;102508.81;4984241;28;20049;-74
2023/04/17 02:20:09;;;;;;;34.38;22.25;;;;;;;7.83;100.00;102526.31;4988150;28;20474;-74
2023/04/17 02:22:34;;;;;;;35.88;21.40;;;;;;;7.79;100.00;102528.00;4990487;28;20086;-74
2023/04/17 02:25:00;;;;;;;35.40;21.70;;;;;;;7.77;100.00;102526.22;4990543;28;20108;-74
2023/04/17 02:27:25;;;;;;;36.38;20.77;;;;;;;7.73;100.00;102526.19;4990918;28;20440;-74
2023/04/17 02:29:51;;;;;;;33.47;21.30;;;;;;;7.77;100.00;102529.69;4990788;28;20044;-73
2023/04/17 02:32:16;;;;;;;31.48;19.85;;;;;;;7.76;100.00;102534.88;4991881;28;20419;-74
2023/04/17 02:34:42;;;;;;;34.58;21.20;;;;;;;7.76;100.00;102529.69;4992189;28;20092;-74
2023/04/17 02:37:07;;;;;;;30.20;20.48;;;;;;;7.73;100.00;102521.00;4991528;28;20037;-74
2023/04/17 02:39:34;;;;;;;33.85;21.50;;;;;;;7.72;100.00;102523.59;4991366;28;20110;-74
2023/04/17 02:42:00;;;;;;;35.08;21.08;;;;;;;7.71;100.00;102522.69;4990614;28;20512;-74
2023/04/17 02:44:26;;;;;;;36.67;22.27;;;;;;;7.72;100.00;102524.44;4991371;28;20038;-74
2023/04/17 02:46:51;;;;;;;33.88;22.23;;;;;;;7.70;100.00;102522.66;4991164;28;20030;-74
2023/04/17 02:49:16;;;;;;;34.85;21.98;;;;;;;7.64;100.00;102526.03;4991668;28;20074;-74
2023/04/17 02:51:42;;;;;;;31.95;21.02;;;;;;;7.66;100.00;102523.47;4991622;28;20035;-74
2023/04/17 02:54:07;;;;;;;36.03;22.33;;;;;;;7.72;100.00;102531.38;4989752;28;20035;-75
2023/04/17 02:56:32;;;;;;;35.78;21.98;;;;;;;7.67;100.00;102531.28;4991475;28;20018;-74
2023/04/17 02:58:58;;;;;;;35.08;22.13;;;;;;;7.64;100.00;102523.44;4992515;28;20022;-74
2023/04/17 03:01:23;;;;;;;36.70;22.42;;;;;;;7.61;100.00;102526.00;4998273;28;20102;-74
2023/04/17 03:03:48;;;;;;;37.97;22.88;;;;;;;7.66;100.00;102529.53;4991809;28;20477;-74
2023/04/17 03:06:14;;;;;;;38.50;23.35;;;;;;;7.67;100.00;102531.28;4992561;28;20105;-74
2023/04/17 03:08:39;;;;;;;38.85;23.77;;;;;;;7.66;100.00;102526.06;4992018;28;20030;-74
2023/04/17 03:11:11;;;;;;;41.28;23.92;;;;;;;7.63;100.00;102528.63;4991680;28;20030;-74
2023/04/17 03:13:36;;;;;;;40.30;24.02;;;;;;;7.63;100.00;102533.81;4993196;28;20378;-74
2023/04/17 03:16:03;;;;;;;41.30;24.52;;;;;;;7.58;100.00;102523.34;4992279;28;20014;-74
2023/04/17 03:18:28;;;;;;;42.38;25.38;;;;;;;7.61;100.00;102532.91;4992200;28;20018;-74
2023/04/17 03:20:54;;;;;;;39.08;22.90;;;;;;;7.60;100.00;102532.03;4992046;28;20018;-74
2023/04/17 03:23:19;;;;;;;41.28;24.60;;;;;;;7.60;100.00;102542.41;4992076;28;20049;-74
2023/04/17 03:25:44;;;;;;;42.55;24.95;;;;;;;7.60;100.00;102533.75;4985800;28;20050;-74
2023/04/17 03:28:10;;;;;;;45.83;24.88;;;;;;;7.58;100.00;102546.69;4992217;28;20042;-74
2023/04/17 03:30:35;;;;;;;41.58;25.02;;;;;;;7.55;100.00;102525.88;4990431;28;20087;-74
2023/04/17 03:33:00;;;;;;;44.10;25.08;;;;;;;7.59;100.00;102529.44;4988748;28;20061;-74
2023/04/17 03:35:25;;;;;;;42.55;24.88;;;;;;;7.57;100.00;102534.59;4992441;28;20385;-74
2023/04/17 03:37:51;;;;;;;45.88;25.70;;;;;;;7.56;100.00;102532.84;4991564;28;20030;-74
2023/04/17 03:40:16;;;;;;;43.35;24.95;;;;;;;7.52;100.00;102525.88;4989220;28;20022;-74
2023/04/17 03:42:41;;;;;;;45.22;26.05;;;;;;;7.52;100.00;102536.25;4991523;28;20033;-74
2023/04/17 03:45:07;;;;;;;42.40;25.27;;;;;;;7.47;100.00;102530.09;4991849;28;20541;-74
2023/04/17 03:47:33;;;;;;;41.33;26.17;;;;;;;7.49;100.00;102534.47;4991019;28;20563;-74
2023/04/17 03:49:58;;;;;;;46.90;25.98;;;;;;;7.49;100.00;102531.88;4991352;28;20061;-74
2023/04/17 03:52:23;;;;;;;47.67;25.98;;;;;;;7.51;100.00;102534.47;4992434;28;20105;-74
2023/04/17 03:54:48;;;;;;;47.10;25.60;;;;;;;7.50;100.00;102523.22;4990359;28;20390;-75
2023/04/17 03:57:14;;;;;;;45.80;25.85;;;;;;;7.49;100.00;102520.63;4991541;28;20071;-74
2023/04/17 03:59:39;;;;;;;45.83;25.65;;;;;;;7.47;100.00;102527.50;4990780;28;20022;-74
2023/04/17 04:02:05;;;;;;;46.00;25.67;;;;;;;7.40;100.00;102523.06;4991714;28;20500;-74
2023/04/17 04:04:33;;;;;;;42.25;25.90;;;;;;;7.45;100.00;102539.56;4991569;28;20469;-74
2023/04/17 04:07:00;;;;;;;41.70;25.33;;;;;;;7.41;100.00;102536.06;4990315;28;20026;-74
2023/04/17 04:09:26;;;;;;;46.05;24.63;;;;;;;7.43;100.00;102533.50;4991945;28;20026;-74
2023/04/17 04:11:51;;;;;;;43.63;25.75;;;;;;;7.35;100.00;102522.97;4991020;28;20041;-74
2023/04/17 04:14:16;;;;;;;40.50;25.98;;;;;;;7.35;100.00;102524.69;4990703;28;20118;-74
2023/04/17 04:16:41;;;;;;;42.13;25.25;;;;;;;7.40;100.00;102533.44;4991103;28;20033;-74
2023/04/17 04:19:07;;;;;;;48.20;26.02;;;;;;;7.37;100.00;102529.06;4991477;28;20033;-74
2023/04/17 04:21:33;;;;;;;47.75;25.75;;;;;;;7.41;100.00;102530.88;4990625;28;20105;-74
2023/04/17 04:23:58;;;;;;;45.85;25.85;;;;;;;7.36;100.00;102536.84;4990894;28;20476;-74
2023/04/17 04:26:24;;;;;;;43.78;26.48;;;;;;;7.31;100.00;102531.56;4991672;28;20088;-74
2023/04/17 04:28:49;;;;;;;47.50;26.52;;;;;;;7.34;100.00;102536.81;4990051;28;20131;-74
2023/04/17 04:31:17;;;;;;;42.55;25.45;;;;;;;7.31;100.00;102533.28;4991449;28;20488;-74
2023/04/17 04:33:43;;;;;;;43.42;26.33;;;;;;;7.26;100.00;102526.31;4990829;28;20030;-74
2023/04/17 04:36:12;;;;;;;46.80;27.73;;;;;;;7.30;100.00;102545.38;4990229;28;20474;-74
2023/04/17 04:38:41;;;;;;;46.20;25.80;;;;;;;7.31;100.00;102551.44;4990615;28;20053;-74
2023/04/17 04:41:09;;;;;;;41.75;26.23;;;;;;;7.31;100.00;102552.31;4989559;28;20030;-74
2023/04/17 04:43:35;;;;;;;46.05;25.98;;;;;;;7.30;100.00;102550.56;4987973;28;20045;-74
2023/04/17 04:46:01;;;;;;;44.38;26.17;;;;;;;7.33;100.00;102557.53;4990235;28;20079;-74
2023/04/17 04:48:28;;;;;;;43.47;24.77;;;;;;;7.36;100.00;102552.41;4990129;28;20461;-74
2023/04/17 04:50:54;;;;;;;40.67;24.65;;;;;;;7.32;100.00;102550.59;4989852;28;20079;-74
2023/04/17 04:53:20;;;;;;;52.45;26.83;;;;;;;7.35;100.00;102553.25;4988222;28;20119;-74
2023/04/17 04:55:45;;;;;;;45.38;26.48;;;;;;;7.35;100.00;102551.50;4987984;28;20573;-74
2023/04/17 04:58:10;;;;;;;47.63;26.98;;;;;;;7.36;100.00;102555.00;4990154;28;20065;-74
2023/04/17 05:00:36;;;;;;;45.88;26.23;;;;;;;7.33;100.00;102549.75;4995552;28;20042;-74
2023/04/17 05:03:01;;;;;;;45.20;26.92;;;;;;;7.34;100.00;102556.69;4989666;28;20042;-74
2023/04/17 05:05:27;;;;;;;44.92;26.63;;;;;;;7.32;100.00;102560.97;4990616;28;20445;-74
2023/04/17 05:07:53;;;;;;;45.03;25.10;;;;;;;7.33;100.00;102563.59;4990144;28;20113;-74
2023/04/17 05:10:20;;;;;;;43.15;26.10;;;;;;;7.31;100.00;102556.63;4990035;28;20125;-74
2023/04/17 05:12:45;;;;;;;43.72;25.45;;;;;;;7.39;100.00;102562.81;4990580;28;20057;-74
2023/04/17 05:15:10;;;;;;;47.45;27.02;;;;;;;7.37;100.00;102567.13;4990523;28;20054;-74
2023/04/17 05:17:36;;;;;;;46.83;27.25;;;;;;;7.40;100.00;102562.00;4999247;28;20429;-74
2023/04/17 05:20:05;;;;;;;47.72;27.30;;;;;;;7.45;100.00;102570.72;4995017;28;20034;-74
2023/04/17 05:22:31;;;;;;;47.28;26.20;;;;;;;7.48;100.00;102578.53;4990463;28;20034;-74
2023/04/17 05:24:56;;;;;;;45.58;27.25;;;;;;;7.51;100.00;102581.19;4989616;28;20035;-74
2023/04/17 05:27:22;;;;;;;47.25;25.55;;;;;;;7.50;100.00;102571.66;4990467;28;20446;-74
2023/04/17 05:29:47;;;;;;;46.22;27.02;;;;;;;7.53;100.00;102573.44;4990072;28;20121;-74
2023/04/17 05:32:12;;;;;;;49.60;28.20;;;;;;;7.54;100.00;102578.66;4989639;28;20485;-74
2023/04/17 05:34:38;;;;;;;44.95;26.85;;;;;;;7.51;100.00;102570.81;4990592;28;20031;-74
2023/04/17 05:37:03;;;;;;;50.95;27.75;;;;;;;7.56;100.00;102582.16;4990366;28;20026;-74
2023/04/17 05:39:28;;;;;;;47.03;27.67;;;;;;;7.55;100.00;102580.38;4989661;28;20469;-74
2023/04/17 05:41:54;;;;;;;49.28;28.23;;;;;;;7.47;100.00;102571.63;4990186;28;20509;-74
2023/04/17 05:44:19;;;;;;;48.97;28.02;;;;;;;7.48;100.00;102587.19;4990003;28;20535;-74
2023/04/17 05:46:44;;;;;;;45.13;27.30;;;;;;;7.48;100.00;102588.94;4989442;28;20113;-74
2023/04/17 05:49:09;;;;;;;48.15;27.77;;;;;;;7.50;100.00;102587.25;4989890;28;20539;-74
2023/04/17 05:51:35;;;;;;;46.22;27.67;;;;;;;7.47;100.00;102582.88;4990400;28;20031;-74
2023/04/17 05:54:01;;;;;;;47.97;28.42;;;;;;;7.47;100.00;102587.19;4988784;28;20050;-74
2023/04/17 05:56:27;;;;;;;49.17;28.52;;;;;;;7.49;100.00;102593.28;4988996;28;20084;-74
2023/04/17 05:58:52;;;;;;;49.63;29.30;;;;;;;7.44;100.00;102587.13;4991548;28;20034;-74
2023/04/17 06:01:21;;;;;;;46.83;27.10;;;;;;;7.39;100.00;102579.28;4989927;28;20023;-74
2023/04/17 06:03:46;;;;;;;50.95;28.17;;;;;;;7.49;100.00;102594.16;4993210;28;20022;-74
2023/04/17 06:06:12;;;;;;;45.00;27.20;;;;;;;7.51;100.00;102592.44;4993412;28;20430;-74
2023/04/17 06:08:37;;;;;;;49.60;29.10;;;;;;;7.40;100.00;102572.38;4996693;28;20037;-74
2023/04/17 06:11:02;;;;;;;50.83;28.58;;;;;;;7.53;100.00;102600.28;4993569;28;20374;-74
2023/04/17 06:13:28;;;;;;;47.40;29.02;;;;;;;7.50;100.00;102597.63;4992645;28;20030;-74
2023/04/17 06:15:53;;;;;;;52.47;29.58;;;;;;;7.47;100.00;102592.38;4993216;28;20095;-74
2023/04/17 06:18:18;;;;;;;50.78;28.55;;;;;;;7.44;100.00;102587.13;4993317;28;20087;-74
2023/04/17 06:20:44;;;;;;;52.25;29.92;;;;;;;7.48;100.00;102607.09;4992084;28;20462;-74
2023/04/17 06:23:10;;;;;;;51.83;28.42;;;;;;;7.52;100.00;102603.72;4993317;28;20027;-74
2023/04/17 06:25:35;;;;;;;51.22;29.60;;;;;;;7.54;100.00;102607.19;4993899;28;20105;-74
2023/04/17 06:28:01;;;;;;;52.80;29.52;;;;;;;7.50;100.00;102605.41;4992284;28;20037;-74
2023/04/17 06:30:26;;;;;;;51.13;29.92;;;;;;;7.55;100.00;102618.44;4993132;28;20029;-74
2023/04/17 06:32:51;;;;;;;54.38;29.17;;;;;;;7.58;100.00;102618.50;4992863;28;20034;-74
2023/04/17 06:35:17;;;;;;;48.08;29.13;;;;;;;7.54;100.00;102611.53;4992297;28;20027;-74
2023/04/17 06:37:42;;;;;;;49.20;29.38;;;;;;;7.61;100.00;102613.38;4992543;28;20450;-74
2023/04/17 06:40:08;;;;;;;49.80;28.98;;;;;;;7.61;100.00;102622.03;4991191;28;20097;-74
2023/04/17 06:42:34;;;;;;;60.30;30.33;;;;;;;7.58;100.00;102623.69;4990368;28;20060;-76
2023/04/17 06:45:00;;;;;;;52.75;31.02;;;;;;;7.66;100.00;102625.59;4991856;28;20465;-74
2023/04/17 06:47:25;;;;;;;53.30;30.10;;;;;;;7.70;100.00;102624.78;4993821;28;20034;-74
2023/04/17 06:49:50;;;;;;;54.60;30.30;;;;;;;7.72;100.00;102622.22;4990573;28;20035;-74
2023/04/17 06:52:19;;;;;;;51.08;29.95;;;;;;;7.73;100.00;102613.59;4992813;28;20058;-74
2023/04/17 06:54:44;;;;;;;53.90;31.48;;;;;;;7.77;100.00;102630.09;4991860;28;20406;-74
2023/04/17 06:57:10;;;;;;;52.72;30.17;;;;;;;7.77;100.00;102635.28;4991099;28;20558;-74
2023/04/17 06:59:36;;;;;;;54.22;29.65;;;;;;;7.76;100.00;102628.34;4990142;28;20064;-74
2023/04/17 07:02:02;;;;;;;56.22;31.05;;;;;;;7.75;100.00;102632.66;4991487;28;20048;-74
2023/04/17 07:04:29;;;;;;;52.03;29.05;;;;;;;7.79;100.00;102634.47;4991665;28;20109;-74
2023/04/17 07:06:54;;;;;;;50.20;30.20;;;;;;;7.79;100.00;102636.19;4991469;28;20450;-74
2023/04/17 07:09:20;;;;;;;52.92;30.45;;;;;;;7.76;100.00;102636.13;4991553;28;20052;-74
2023/04/17 07:11:45;;;;;;;53.33;29.23;;;;;;;7.71;100.00;102638.63;4989325;28;20087;-74
2023/04/17 07:14:10;;;;;;;52.40;31.08;;;;;;;7.71;100.00;102642.09;4990282;28;20035;-74
2023/04/17 07:16:36;;;;;;;53.80;30.95;;;;;;;7.80;100.00;102653.50;4993656;28;20019;-74
2023/04/17 07:19:01;;;;;;;56.10;31.00;;;;;;;7.87;100.00;102648.44;4992145;28;20472;-74
2023/04/17 07:21:27;;;;;;;52.92;29.48;;;;;;;7.96;100.00;102655.50;4992237;28;20833;-74
2023/04/17 07:23:52;;;;;;;52.85;30.67;;;;;;;7.97;100.00;102654.66;4992583;28;20030;-74
2023/04/17 07:26:17;;;;;;;51.58;29.40;;;;;;;7.94;100.00;102662.38;5002351;28;20042;-74
2023/04/17 07:28:43;;;;;;;55.33;30.70;;;;;;;7.90;100.00;102664.06;4986815;28;20427;-75
2023/04/17 07:31:08;;;;;;;54.05;30.17;;;;;;;7.93;100.00;102660.66;4986424;28;20109;-74
2023/04/17 07:33:37;;;;;;;53.70;29.55;;;;;;;7.99;100.00;102658.16;4991302;28;20034;-74
2023/04/17 07:36:04;;;;;;;56.85;31.30;;;;;;;8.11;100.00;102671.34;4991075;28;20023;-75
2023/04/17 07:38:30;;;;;;;53.10;29.38;;;;;;;8.16;100.00;102669.69;4990951;28;20062;-72
2023/04/17 07:40:56;;;;;;;47.42;28.95;;;;;;;8.28;100.00;102660.34;4991024;28;20038;-74
2023/04/17 07:43:21;;;;;;;47.88;29.75;;;;;;;8.36;100.00;102653.53;4992169;28;20386;-74
2023/04/17 07:45:47;;;;;;;49.35;29.17;;;;;;;8.35;100.00;102641.38;4988912;28;20023;-74
2023/04/17 07:48:13;;;;;;;50.45;29.90;;;;;;;8.52;100.00;102665.91;4991982;28;20389;-74
2023/04/17 07:50:38;;;;;;;51.88;30.08;;;;;;;8.56;100.00;102670.31;4990790;28;20035;-75
2023/04/17 07:53:03;;;;;;;51.30;30.05;;;;;;;8.61;100.00;102667.78;4991324;28;20030;-75
2023/04/17 07:55:29;;;;;;;49.28;28.25;;;;;;;8.70;100.00;102673.13;4986645;28;20034;-73
2023/04/17 07:57:54;;;;;;;48.83;29.20;;;;;;;8.81;100.00;102666.31;4989180;28;20597;-74
2023/04/17 08:00:20;;;;;;;51.08;29.88;;;;;;;8.97;100.00;102663.91;4989842;28;20034;-74
2023/04/17 08:02:45;;;;;;;51.30;29.15;;;;;;;9.07;100.00;102670.97;4990624;28;20038;-74
2023/04/17 08:05:11;;;;;;;51.35;30.35;;;;;;;9.04;100.00;102668.34;4990859;28;20022;-74
2023/04/17 08:07:36;;;;;;;51.75;28.30;;;;;;;9.14;100.00;102671.06;4989893;28;20034;-74
2023/04/17 08:10:03;;;;;;;47.60;28.45;;;;;;;9.33;100.00;102666.94;4991128;28;20034;-74
2023/04/17 08:12:28;;;;;;;49.42;28.63;;;;;;;9.57;100.00;102666.31;4991799;28;20117;-74
2023/04/17 08:14:53;;;;;;;48.63;29.13;;;;;;;9.73;100.00;102669.06;4990569;28;20168;-74
2023/04/17 08:17:21;;;;;;;46.25;29.48;;;;;;;9.96;100.00;102674.47;4991370;28;20075;-74
2023/04/17 08:19:52;;;;;;;46.03;28.92;;;;;;;9.89;100.00;102654.44;4989858;28;20038;-74
2023/04/17 08:22:20;;;;;;;45.90;28.15;;;;;;;9.98;100.00;102664.94;4991168;28;20022;-74
2023/04/17 08:24:47;;;;;;;47.00;27.50;;;;;;;10.04;100.00;102673.69;4991053;28;20034;-74
2023/04/17 08:27:13;;;;;;;41.13;26.52;;;;;;;10.06;100.00;102664.13;4989421;28;20034;-74
2023/04/17 08:29:39;;;;;;;41.13;26.13;;;;;;;10.08;100.00;102672.84;4990386;28;20038;-74
2023/04/17 08:32:04;;;;;;;38.60;25.60;;;;;;;10.05;100.00;102674.56;4992242;28;20058;-74
2023/04/17 08:34:31;;;;;;;40.13;25.23;;;;;;;9.99;100.00;102677.09;4986782;28;20119;-74
2023/04/17 08:36:57;;;;;;;39.70;26.02;;;;;;;10.02;100.00;102679.75;4991332;28;20024;-73
2023/04/17 08:39:22;;;;;;;38.55;25.67;;;;;;;10.11;100.00;102677.22;4991080;28;20029;-74
2023/04/17 08:41:56;;;;;;;37.58;25.17;;;;;;;10.08;100.00;102662.41;4988814;28;20027;-74
2023/04/17 08:44:22;;;;;;;40.78;25.77;;;;;;;10.22;100.00;102679.88;4992022;28;20041;-73
2023/04/17 08:46:48;;;;;;;38.72;24.90;;;;;;;10.25;100.00;102675.56;4990184;28;20408;-74
2023/04/17 08:49:14;;;;;;;37.30;24.73;;;;;;;10.24;100.00;102678.19;4988704;28;20026;-74
2023/04/17 08:51:41;;;;;;;39.58;25.00;;;;;;;10.22;100.00;102683.38;4989451;28;20376;-74
2023/04/17 08:54:06;;;;;;;37.80;24.90;;;;;;;10.08;100.00;102672.84;4988437;28;20519;-74
2023/04/17 08:56:31;;;;;;;38.75;24.95;;;;;;;9.96;100.00;102677.06;4988262;28;20062;-73
2023/04/17 08:58:57;;;;;;;37.63;24.73;;;;;;;9.95;100.00;102671.00;4985310;28;20030;-74
2023/04/17 09:01:22;;;;;;;40.97;25.65;;;;;;;10.12;100.00;102673.72;4982791;28;20459;-74
2023/04/17 09:03:50;;;;;;;37.30;24.67;;;;;;;10.22;100.00;102675.53;4989868;28;20023;-74
2023/04/17 09:06:16;;;;;;;41.97;25.00;;;;;;;10.34;100.00;102680.03;4989973;28;20037;-74
2023/04/17 09:08:57;;;;;;;39.65;24.48;;;;;;;10.42;100.00;102683.53;4990337;28;20034;-74
2023/04/17 09:11:23;;;;;;;36.20;24.65;;;;;;;10.58;100.00;102678.41;4989800;28;20034;-74
2023/04/17 09:13:48;;;;;;;38.42;23.65;;;;;;;10.59;100.00;102677.53;4977741;28;20462;-74
2023/04/17 09:16:18;;;;;;;40.25;25.20;;;;;;;10.71;100.00;102678.50;4988648;28;20027;-74
2023/04/17 09:18:48;;;;;;;40.17;25.25;;;;;;;10.92;100.00;102675.13;4987871;28;20109;-74
2023/04/17 09:21:17;;;;;;;34.83;24.25;;;;;;;11.15;100.00;102680.44;4990332;28;20022;-74
2023/04/17 09:23:51;;;;;;;37.72;25.00;;;;;;;11.18;98.84;102687.38;4985596;28;20478;-75
2023/04/17 09:26:22;;;;;;;40.50;24.70;;;;;;;11.28;99.68;102675.22;4990527;28;20054;-74
2023/04/17 09:29:03;;;;;;;40.75;26.10;;;;;;;11.38;98.55;102679.59;4989435;28;20038;-74
2023/04/17 09:31:30;;;;;;;36.40;24.25;;;;;;;11.53;97.76;102684.00;4988577;28;20405;-74
2023/04/17 09:34:00;;;;;;;34.47;23.35;;;;;;;11.55;94.65;102680.53;4990114;28;20018;-74
2023/04/17 09:36:26;;;;;;;37.33;25.10;;;;;;;11.55;95.08;102679.66;4996562;28;20037;-74
2023/04/17 09:38:52;;;;;;;35.63;23.38;;;;;;;11.65;92.76;102676.19;4989049;28;20053;-74
2023/04/17 09:41:24;;;;;;;36.28;23.83;;;;;;;11.79;93.94;102682.31;4986630;28;20088;-73
2023/04/17 09:43:52;;;;;;;35.20;23.00;;;;;;;11.82;90.64;102660.53;4988906;28;20113;-73
2023/04/17 09:46:34;;;;;;;36.75;24.60;;;;;;;11.96;92.21;102674.50;4990422;28;20045;-73
2023/04/17 09:49:20;;;;;;;36.13;24.38;;;;;;;12.15;91.81;102670.13;4985643;28;20034;-73
2023/04/17 09:51:45;;;;;;;35.65;24.17;;;;;;;11.95;89.04;102675.38;4995505;28;20049;-73
2023/04/17 09:54:13;;;;;;;33.15;24.25;;;;;;;11.92;89.39;102683.22;4978616;28;20043;-73
2023/04/17 09:56:40;;;;;;;38.97;24.60;;;;;;;12.05;92.58;102674.50;4989257;28;20029;-73
2023/04/17 09:59:06;;;;;;;47.50;26.42;;;;;;;12.42;92.90;102669.22;4989417;28;20105;-73
2023/04/17 10:01:32;;;;;;;36.10;25.20;;;;;;;12.53;87.34;102672.69;4990524;28;20031;-73
2023/04/17 10:03:59;;;;;;;34.47;24.15;;;;;;;12.57;89.83;102673.56;4990350;28;20486;-73
2023/04/17 10:06:27;;;;;;;35.95;24.83;;;;;;;12.80;91.32;102650.78;4990269;28;20390;-73
2023/04/17 10:08:53;;;;;;;35.45;24.02;;;;;;;13.23;87.51;102661.06;4987236;28;20022;-73
2023/04/17 10:11:22;;;;;;;34.40;23.67;;;;;;;13.45;84.87;102651.38;4989795;28;20060;-74
2023/04/17 10:13:59;;;;;;;33.72;24.15;;;;;;;13.55;82.38;102657.41;4988970;28;20026;-73
2023/04/17 10:16:38;;;;;;;37.55;25.25;;;;;;;13.52;80.31;102646.94;4976902;28;20039;-75
2023/04/17 10:19:30;;;;;;;33.83;22.98;;;;;;;13.62;80.13;102653.00;4974638;28;20079;-75
2023/04/17 10:22:18;;;;;;;33.40;23.10;;;;;;;13.60;79.94;102655.63;4988341;28;21349;-74
2023/04/17 10:24:46;;;;;;;33.47;23.08;;;;;;;13.47;77.48;102657.47;4989221;28;20076;-81
2023/04/17 10:27:23;;;;;;;37.90;23.83;;;;;;;13.54;77.61;102655.69;4988320;28;20038;-81
2023/04/17 10:29:58;;;;;;;32.45;22.65;;;;;;;13.95;78.00;102659.72;4987355;28;20133;-76
2023/04/17 10:32:26;;;;;;;33.55;22.60;;;;;;;14.62;76.90;102661.72;4991042;28;20062;-76
2023/04/17 10:35:21;;;;;;;32.85;22.88;;;;;;;14.65;72.57;102652.91;4987421;28;20026;-75
2023/04/17 10:37:50;;;;;;;38.03;23.38;;;;;;;14.14;72.13;102658.66;4983389;28;20371;-75
2023/04/17 10:40:21;;;;;;;32.97;23.00;;;;;;;13.76;74.81;102641.50;4989491;28;20470;-76
2023/04/17 10:43:14;;;;;;;29.92;21.80;;;;;;;13.84;74.67;102651.09;4980364;28;20056;-75
2023/04/17 10:45:55;;;;;;;32.50;22.23;;;;;;;14.25;74.35;102646.31;4992523;28;20047;-75
2023/04/17 10:48:35;;;;;;;32.65;22.65;;;;;;;14.63;73.65;102650.31;4992007;28;20784;-75
2023/04/17 10:51:22;;;;;;;30.20;22.83;;;;;;;14.62;71.25;102651.22;5002019;28;20030;-76
2023/04/17 10:53:55;;;;;;;30.98;20.38;;;;;;;14.68;67.38;102648.53;4992040;28;20502;-76
2023/04/17 10:56:27;;;;;;;32.38;21.02;;;;;;;14.79;65.74;102640.50;5049074;28;20049;-75
2023/04/17 10:59:04;;;;;;;29.17;21.50;;;;;;;15.19;66.06;102646.09;4990763;28;20041;-76
2023/04/17 11:01:30;;;;;;;30.42;21.48;;;;;;;15.56;65.64;102644.66;4992333;28;20121;-75
2023/04/17 11:04:00;;;;;;;29.95;20.75;;;;;;;15.23;60.81;102639.91;4991766;28;20099;-75
2023/04/17 11:06:27;;;;;;;30.50;20.85;;;;;;;14.70;63.20;102644.09;5004305;28;20459;-75
2023/04/17 11:08:55;;;;;;;32.05;21.48;;;;;;;14.54;66.66;102632.03;4992899;28;20034;-75